首页
METAR-TAF:

METAR-TAF

机场 :

巴格达, 伊拉克

巴格達國際機場

纬度: 33-15-45N, 经度: 44-14-04E, 海拔: 35米

当前天气观测

该预报发布于53分钟前的06:00 UTC
风速7节,风向北转西北
温度 25°C
湿度 36%
气压 1014 hPa
能见度10公里或以上
1500米以下无云,无积雨云

METAR: ORBI 250600Z 34007KT CAVOK 25/09 Q1014 NOSIG

时间: 09:53 (06:53 UTC)

预报

该预报发布于3小时和23分钟前的03:30 UTC
预报有效从25日的 06点(UTC)到 26日的 06点(UTC)
风速6节,风向北转西北
能見度: 8000

TAF: ORBI 250330Z 2506/2606 33006KT 8000 NSC

超过4000个机场的气象观测和天气预报(METAR&TAF报告)。

可查询的气象台以黄色和红色小点在地图上表示。

将鼠标移到小点上方,可查看气象台名称。

然后点击查看天气观测和预报。

如需切换地图:点击带黑十字的绿色按钮放大地图;点击带横线的绿色按钮缩小地图;或者点击绿色箭头查看邻近地区的地图。


METAR-TAF: